sensor_id;sensor_type;location;lat;lon;timestamp;P1;durP1;ratioP1;P2;durP2;ratioP2
35679;SDS011;21803;53.586;10.040;2024-02-21T00:01:21;12.98;;;1.70;;
35679;SDS011;21803;53.586;10.040;2024-02-21T00:03:47;8.35;;;1.75;;
35679;SDS011;21803;53.586;10.040;2024-02-21T00:06:13;8.07;;;1.42;;
35679;SDS011;21803;53.586;10.040;2024-02-21T00:08:38;12.05;;;2.00;;
35679;SDS011;21803;53.586;10.040;2024-02-21T00:11:04;14.00;;;1.60;;
35679;SDS011;21803;53.586;10.040;2024-02-21T00:13:29;6.93;;;1.55;;
35679;SDS011;21803;53.586;10.040;2024-02-21T00:15:55;11.00;;;1.60;;
35679;SDS011;21803;53.586;10.040;2024-02-21T00:18:21;10.80;;;1.20;;
35679;SDS011;21803;53.586;10.040;2024-02-21T00:20:46;5.65;;;1.20;;
35679;SDS011;21803;53.586;10.040;2024-02-21T00:23:12;7.10;;;1.40;;
35679;SDS011;21803;53.586;10.040;2024-02-21T00:25:37;5.18;;;1.30;;
35679;SDS011;21803;53.586;10.040;2024-02-21T00:28:03;10.10;;;1.70;;
35679;SDS011;21803;53.586;10.040;2024-02-21T00:30:28;8.15;;;1.30;;
35679;SDS011;21803;53.586;10.040;2024-02-21T00:32:54;9.02;;;1.60;;
35679;SDS011;21803;53.586;10.040;2024-02-21T00:35:20;5.47;;;1.33;;
35679;SDS011;21803;53.586;10.040;2024-02-21T00:37:45;3.95;;;1.13;;
35679;SDS011;21803;53.586;10.040;2024-02-21T00:40:11;6.30;;;1.45;;
35679;SDS011;21803;53.586;10.040;2024-02-21T00:42:36;6.20;;;1.33;;
35679;SDS011;21803;53.586;10.040;2024-02-21T00:45:02;10.38;;;1.42;;
35679;SDS011;21803;53.586;10.040;2024-02-21T00:47:28;4.30;;;1.40;;
35679;SDS011;21803;53.586;10.040;2024-02-21T00:49:53;6.90;;;1.73;;
35679;SDS011;21803;53.586;10.040;2024-02-21T00:52:20;6.43;;;1.52;;
35679;SDS011;21803;53.586;10.040;2024-02-21T00:54:45;8.57;;;1.63;;
35679;SDS011;21803;53.586;10.040;2024-02-21T00:57:11;13.32;;;1.88;;
35679;SDS011;21803;53.586;10.040;2024-02-21T00:59:37;15.30;;;1.67;;
35679;SDS011;21803;53.586;10.040;2024-02-21T01:02:02;8.45;;;1.38;;
35679;SDS011;21803;53.586;10.040;2024-02-21T01:04:28;6.65;;;1.60;;
35679;SDS011;21803;53.586;10.040;2024-02-21T01:06:53;3.38;;;1.20;;
35679;SDS011;21803;53.586;10.040;2024-02-21T01:09:19;4.53;;;1.33;;
35679;SDS011;21803;53.586;10.040;2024-02-21T01:11:44;8.88;;;1.40;;
35679;SDS011;21803;53.586;10.040;2024-02-21T01:14:10;3.85;;;1.40;;
35679;SDS011;21803;53.586;10.040;2024-02-21T01:16:36;5.82;;;1.98;;
35679;SDS011;21803;53.586;10.040;2024-02-21T01:19:01;7.95;;;1.40;;
35679;SDS011;21803;53.586;10.040;2024-02-21T01:21:27;6.07;;;1.63;;
35679;SDS011;21803;53.586;10.040;2024-02-21T01:23:53;8.57;;;1.88;;
35679;SDS011;21803;53.586;10.040;2024-02-21T01:26:18;4.20;;;1.50;;
35679;SDS011;21803;53.586;10.040;2024-02-21T01:28:44;8.10;;;1.13;;
35679;SDS011;21803;53.586;10.040;2024-02-21T01:31:09;4.75;;;1.10;;
35679;SDS011;21803;53.586;10.040;2024-02-21T01:33:35;5.15;;;1.33;;
35679;SDS011;21803;53.586;10.040;2024-02-21T01:36:04;8.32;;;1.30;;
35679;SDS011;21803;53.586;10.040;2024-02-21T01:38:31;8.13;;;1.38;;
35679;SDS011;21803;53.586;10.040;2024-02-21T01:40:57;7.93;;;1.52;;
35679;SDS011;21803;53.586;10.040;2024-02-21T01:43:23;5.07;;;1.45;;
35679;SDS011;21803;53.586;10.040;2024-02-21T01:45:49;5.50;;;1.40;;
35679;SDS011;21803;53.586;10.040;2024-02-21T01:48:17;6.60;;;1.60;;
35679;SDS011;21803;53.586;10.040;2024-02-21T01:50:44;4.45;;;1.45;;
35679;SDS011;21803;53.586;10.040;2024-02-21T01:53:10;5.53;;;1.42;;
35679;SDS011;21803;53.586;10.040;2024-02-21T01:55:42;3.95;;;1.00;;
35679;SDS011;21803;53.586;10.040;2024-02-21T01:58:09;6.78;;;1.50;;
35679;SDS011;21803;53.586;10.040;2024-02-21T02:00:35;8.50;;;1.27;;
35679;SDS011;21803;53.586;10.040;2024-02-21T02:03:02;4.68;;;1.30;;
35679;SDS011;21803;53.586;10.040;2024-02-21T02:05:28;6.97;;;1.52;;
35679;SDS011;21803;53.586;10.040;2024-02-21T02:07:54;5.72;;;1.30;;
35679;SDS011;21803;53.586;10.040;2024-02-21T02:10:19;6.45;;;1.55;;
35679;SDS011;21803;53.586;10.040;2024-02-21T02:12:45;11.13;;;1.20;;
35679;SDS011;21803;53.586;10.040;2024-02-21T02:15:10;5.70;;;1.27;;
35679;SDS011;21803;53.586;10.040;2024-02-21T02:17:36;6.25;;;1.55;;
35679;SDS011;21803;53.586;10.040;2024-02-21T02:20:01;2.80;;;1.33;;
35679;SDS011;21803;53.586;10.040;2024-02-21T02:22:30;5.75;;;1.73;;
35679;SDS011;21803;53.586;10.040;2024-02-21T02:24:58;5.40;;;1.30;;
35679;SDS011;21803;53.586;10.040;2024-02-21T02:27:24;7.18;;;1.60;;
35679;SDS011;21803;53.586;10.040;2024-02-21T02:29:49;8.10;;;1.55;;
35679;SDS011;21803;53.586;10.040;2024-02-21T02:32:15;8.73;;;1.67;;
35679;SDS011;21803;53.586;10.040;2024-02-21T02:34:41;6.05;;;1.30;;
35679;SDS011;21803;53.586;10.040;2024-02-21T02:37:06;8.27;;;1.40;;
35679;SDS011;21803;53.586;10.040;2024-02-21T02:39:32;7.97;;;1.73;;
35679;SDS011;21803;53.586;10.040;2024-02-21T02:41:57;7.03;;;1.10;;
35679;SDS011;21803;53.586;10.040;2024-02-21T02:44:23;7.65;;;1.30;;
35679;SDS011;21803;53.586;10.040;2024-02-21T02:46:49;5.45;;;1.60;;
35679;SDS011;21803;53.586;10.040;2024-02-21T02:49:14;8.02;;;1.60;;
35679;SDS011;21803;53.586;10.040;2024-02-21T02:51:43;9.45;;;1.23;;
35679;SDS011;21803;53.586;10.040;2024-02-21T02:54:09;4.25;;;1.40;;
35679;SDS011;21803;53.586;10.040;2024-02-21T02:56:35;8.43;;;1.70;;
35679;SDS011;21803;53.586;10.040;2024-02-21T02:59:00;10.88;;;1.38;;
35679;SDS011;21803;53.586;10.040;2024-02-21T03:01:26;5.07;;;1.38;;
35679;SDS011;21803;53.586;10.040;2024-02-21T03:03:52;6.78;;;1.55;;
35679;SDS011;21803;53.586;10.040;2024-02-21T03:06:17;3.65;;;1.17;;
35679;SDS011;21803;53.586;10.040;2024-02-21T03:08:43;9.43;;;1.52;;
35679;SDS011;21803;53.586;10.040;2024-02-21T03:11:08;3.55;;;1.55;;
35679;SDS011;21803;53.586;10.040;2024-02-21T03:13:35;8.88;;;2.00;;
35679;SDS011;21803;53.586;10.040;2024-02-21T03:16:01;7.15;;;1.45;;
35679;SDS011;21803;53.586;10.040;2024-02-21T03:18:27;7.63;;;2.25;;
35679;SDS011;21803;53.586;10.040;2024-02-21T03:20:52;6.78;;;1.55;;
35679;SDS011;21803;53.586;10.040;2024-02-21T03:23:18;4.90;;;1.27;;
35679;SDS011;21803;53.586;10.040;2024-02-21T03:25:43;7.40;;;1.48;;
35679;SDS011;21803;53.586;10.040;2024-02-21T03:28:09;6.13;;;1.80;;
35679;SDS011;21803;53.586;10.040;2024-02-21T03:30:34;5.82;;;1.27;;
35679;SDS011;21803;53.586;10.040;2024-02-21T03:33:00;9.63;;;1.30;;
35679;SDS011;21803;53.586;10.040;2024-02-21T03:35:26;6.07;;;1.60;;
35679;SDS011;21803;53.586;10.040;2024-02-21T03:37:52;8.55;;;1.77;;
35679;SDS011;21803;53.586;10.040;2024-02-21T03:40:18;5.72;;;1.50;;
35679;SDS011;21803;53.586;10.040;2024-02-21T03:42:43;5.97;;;1.60;;
35679;SDS011;21803;53.586;10.040;2024-02-21T03:45:09;5.40;;;1.50;;
35679;SDS011;21803;53.586;10.040;2024-02-21T03:47:34;6.57;;;1.80;;
35679;SDS011;21803;53.586;10.040;2024-02-21T03:50:00;6.72;;;1.67;;
35679;SDS011;21803;53.586;10.040;2024-02-21T03:52:26;7.47;;;1.83;;
35679;SDS011;21803;53.586;10.040;2024-02-21T03:54:51;6.45;;;1.60;;
35679;SDS011;21803;53.586;10.040;2024-02-21T03:57:17;5.30;;;1.50;;
35679;SDS011;21803;53.586;10.040;2024-02-21T03:59:42;4.00;;;1.40;;
35679;SDS011;21803;53.586;10.040;2024-02-21T04:02:08;11.13;;;1.55;;
35679;SDS011;21803;53.586;10.040;2024-02-21T04:04:34;7.70;;;1.45;;
35679;SDS011;21803;53.586;10.040;2024-02-21T04:07:02;8.30;;;1.85;;
35679;SDS011;21803;53.586;10.040;2024-02-21T04:09:31;6.65;;;1.58;;
35679;SDS011;21803;53.586;10.040;2024-02-21T04:11:58;8.25;;;2.13;;
35679;SDS011;21803;53.586;10.040;2024-02-21T04:14:24;7.78;;;1.65;;
35679;SDS011;21803;53.586;10.040;2024-02-21T04:16:50;7.95;;;1.80;;
35679;SDS011;21803;53.586;10.040;2024-02-21T04:19:15;4.20;;;1.65;;
35679;SDS011;21803;53.586;10.040;2024-02-21T04:21:41;7.13;;;1.80;;
35679;SDS011;21803;53.586;10.040;2024-02-21T04:24:06;7.88;;;1.70;;
35679;SDS011;21803;53.586;10.040;2024-02-21T04:26:32;10.82;;;1.65;;
35679;SDS011;21803;53.586;10.040;2024-02-21T04:28:57;4.47;;;1.30;;
35679;SDS011;21803;53.586;10.040;2024-02-21T04:31:23;8.85;;;1.85;;
35679;SDS011;21803;53.586;10.040;2024-02-21T04:33:49;6.43;;;1.15;;
35679;SDS011;21803;53.586;10.040;2024-02-21T04:36:15;7.70;;;1.50;;
35679;SDS011;21803;53.586;10.040;2024-02-21T04:38:40;4.18;;;1.20;;
35679;SDS011;21803;53.586;10.040;2024-02-21T04:41:06;9.73;;;1.98;;
35679;SDS011;21803;53.586;10.040;2024-02-21T04:43:31;5.93;;;1.65;;
35679;SDS011;21803;53.586;10.040;2024-02-21T04:45:57;3.58;;;1.30;;
35679;SDS011;21803;53.586;10.040;2024-02-21T04:48:23;5.75;;;1.63;;
35679;SDS011;21803;53.586;10.040;2024-02-21T04:50:48;4.55;;;1.15;;
35679;SDS011;21803;53.586;10.040;2024-02-21T04:53:14;8.05;;;1.75;;
35679;SDS011;21803;53.586;10.040;2024-02-21T04:55:40;12.13;;;1.80;;
35679;SDS011;21803;53.586;10.040;2024-02-21T04:58:05;8.35;;;2.95;;
35679;SDS011;21803;53.586;10.040;2024-02-21T05:00:31;3.53;;;1.25;;
35679;SDS011;21803;53.586;10.040;2024-02-21T05:02:56;5.32;;;1.58;;
35679;SDS011;21803;53.586;10.040;2024-02-21T05:05:22;7.15;;;1.40;;
35679;SDS011;21803;53.586;10.040;2024-02-21T05:07:47;5.63;;;1.17;;
35679;SDS011;21803;53.586;10.040;2024-02-21T05:10:12;8.82;;;1.52;;
35679;SDS011;21803;53.586;10.040;2024-02-21T05:12:38;10.15;;;1.30;;
35679;SDS011;21803;53.586;10.040;2024-02-21T05:15:04;6.15;;;1.50;;
35679;SDS011;21803;53.586;10.040;2024-02-21T05:17:30;5.25;;;1.65;;
35679;SDS011;21803;53.586;10.040;2024-02-21T05:19:55;6.03;;;1.70;;
35679;SDS011;21803;53.586;10.040;2024-02-21T05:22:21;10.63;;;1.67;;
35679;SDS011;21803;53.586;10.040;2024-02-21T05:24:46;5.30;;;1.30;;
35679;SDS011;21803;53.586;10.040;2024-02-21T05:27:12;11.07;;;1.83;;
35679;SDS011;21803;53.586;10.040;2024-02-21T05:29:37;8.48;;;1.80;;
35679;SDS011;21803;53.586;10.040;2024-02-21T05:32:03;13.13;;;1.95;;
35679;SDS011;21803;53.586;10.040;2024-02-21T05:34:29;4.90;;;1.35;;
35679;SDS011;21803;53.586;10.040;2024-02-21T05:36:54;6.63;;;1.40;;
35679;SDS011;21803;53.586;10.040;2024-02-21T05:39:20;4.40;;;1.25;;
35679;SDS011;21803;53.586;10.040;2024-02-21T05:41:47;5.28;;;1.30;;
35679;SDS011;21803;53.586;10.040;2024-02-21T05:44:13;4.72;;;1.65;;
35679;SDS011;21803;53.586;10.040;2024-02-21T05:46:39;5.40;;;1.50;;
35679;SDS011;21803;53.586;10.040;2024-02-21T05:49:04;7.28;;;1.65;;
35679;SDS011;21803;53.586;10.040;2024-02-21T05:51:33;4.47;;;1.40;;
35679;SDS011;21803;53.586;10.040;2024-02-21T05:53:59;7.38;;;1.65;;
35679;SDS011;21803;53.586;10.040;2024-02-21T05:56:25;6.45;;;1.17;;
35679;SDS011;21803;53.586;10.040;2024-02-21T05:58:50;7.72;;;1.50;;
35679;SDS011;21803;53.586;10.040;2024-02-21T06:01:16;4.55;;;1.20;;
35679;SDS011;21803;53.586;10.040;2024-02-21T06:03:42;5.57;;;1.50;;
35679;SDS011;21803;53.586;10.040;2024-02-21T06:06:08;3.30;;;1.20;;
35679;SDS011;21803;53.586;10.040;2024-02-21T06:08:34;2.75;;;1.23;;
35679;SDS011;21803;53.586;10.040;2024-02-21T06:10:59;4.03;;;1.27;;
35679;SDS011;21803;53.586;10.040;2024-02-21T06:13:24;3.42;;;1.10;;
35679;SDS011;21803;53.586;10.040;2024-02-21T06:15:50;4.43;;;1.20;;
35679;SDS011;21803;53.586;10.040;2024-02-21T06:18:19;2.55;;;1.23;;
35679;SDS011;21803;53.586;10.040;2024-02-21T06:20:45;4.00;;;1.38;;
35679;SDS011;21803;53.586;10.040;2024-02-21T06:23:11;3.50;;;1.20;;
35679;SDS011;21803;53.586;10.040;2024-02-21T06:25:41;4.85;;;1.27;;
35679;SDS011;21803;53.586;10.040;2024-02-21T06:28:07;6.80;;;1.30;;
35679;SDS011;21803;53.586;10.040;2024-02-21T06:30:32;7.70;;;1.60;;
35679;SDS011;21803;53.586;10.040;2024-02-21T06:32:58;6.72;;;1.55;;
35679;SDS011;21803;53.586;10.040;2024-02-21T06:35:24;4.43;;;1.42;;
35679;SDS011;21803;53.586;10.040;2024-02-21T06:37:50;3.13;;;1.20;;
35679;SDS011;21803;53.586;10.040;2024-02-21T06:40:17;7.20;;;1.30;;
35679;SDS011;21803;53.586;10.040;2024-02-21T06:42:43;8.73;;;1.85;;
35679;SDS011;21803;53.586;10.040;2024-02-21T06:45:08;7.38;;;2.00;;
35679;SDS011;21803;53.586;10.040;2024-02-21T06:47:34;7.18;;;1.50;;
35679;SDS011;21803;53.586;10.040;2024-02-21T06:50:00;6.93;;;1.83;;
35679;SDS011;21803;53.586;10.040;2024-02-21T06:52:25;6.80;;;1.80;;
35679;SDS011;21803;53.586;10.040;2024-02-21T06:54:51;6.28;;;1.52;;
35679;SDS011;21803;53.586;10.040;2024-02-21T06:57:17;8.38;;;1.90;;
35679;SDS011;21803;53.586;10.040;2024-02-21T06:59:42;7.20;;;1.65;;
35679;SDS011;21803;53.586;10.040;2024-02-21T07:02:08;9.20;;;2.67;;
35679;SDS011;21803;53.586;10.040;2024-02-21T07:04:34;6.78;;;1.45;;
35679;SDS011;21803;53.586;10.040;2024-02-21T07:06:59;6.57;;;1.35;;
35679;SDS011;21803;53.586;10.040;2024-02-21T07:09:25;9.00;;;2.25;;
35679;SDS011;21803;53.586;10.040;2024-02-21T07:11:51;8.75;;;1.60;;
35679;SDS011;21803;53.586;10.040;2024-02-21T07:14:17;6.18;;;1.23;;
35679;SDS011;21803;53.586;10.040;2024-02-21T07:16:43;6.32;;;1.42;;
35679;SDS011;21803;53.586;10.040;2024-02-21T07:19:09;5.90;;;1.30;;
35679;SDS011;21803;53.586;10.040;2024-02-21T07:21:34;7.20;;;1.55;;
35679;SDS011;21803;53.586;10.040;2024-02-21T07:24:02;9.35;;;1.95;;
35679;SDS011;21803;53.586;10.040;2024-02-21T07:26:29;8.07;;;1.45;;
35679;SDS011;21803;53.586;10.040;2024-02-21T07:28:54;10.35;;;1.85;;
35679;SDS011;21803;53.586;10.040;2024-02-21T07:31:20;5.10;;;1.60;;
35679;SDS011;21803;53.586;10.040;2024-02-21T07:33:45;6.25;;;1.58;;
35679;SDS011;21803;53.586;10.040;2024-02-21T07:36:11;3.00;;;1.35;;
35679;SDS011;21803;53.586;10.040;2024-02-21T07:38:36;5.15;;;1.52;;
35679;SDS011;21803;53.586;10.040;2024-02-21T07:41:02;3.72;;;1.10;;
35679;SDS011;21803;53.586;10.040;2024-02-21T07:43:29;8.07;;;1.95;;
35679;SDS011;21803;53.586;10.040;2024-02-21T07:45:54;5.95;;;1.60;;
35679;SDS011;21803;53.586;10.040;2024-02-21T07:48:20;6.22;;;1.27;;
35679;SDS011;21803;53.586;10.040;2024-02-21T07:50:49;4.53;;;1.10;;
35679;SDS011;21803;53.586;10.040;2024-02-21T07:53:17;4.88;;;1.40;;
35679;SDS011;21803;53.586;10.040;2024-02-21T07:55:44;3.53;;;1.13;;
35679;SDS011;21803;53.586;10.040;2024-02-21T07:58:10;4.72;;;1.17;;
35679;SDS011;21803;53.586;10.040;2024-02-21T08:00:35;6.40;;;1.20;;
35679;SDS011;21803;53.586;10.040;2024-02-21T08:03:01;4.97;;;1.15;;
35679;SDS011;21803;53.586;10.040;2024-02-21T08:05:26;7.32;;;1.35;;
35679;SDS011;21803;53.586;10.040;2024-02-21T08:07:54;11.15;;;1.17;;
35679;SDS011;21803;53.586;10.040;2024-02-21T08:10:20;6.55;;;1.20;;
35679;SDS011;21803;53.586;10.040;2024-02-21T08:12:45;8.68;;;1.52;;
35679;SDS011;21803;53.586;10.040;2024-02-21T08:15:11;10.85;;;1.75;;
35679;SDS011;21803;53.586;10.040;2024-02-21T08:17:37;5.35;;;2.15;;
35679;SDS011;21803;53.586;10.040;2024-02-21T08:20:03;5.43;;;1.60;;
35679;SDS011;21803;53.586;10.040;2024-02-21T08:22:29;4.05;;;1.30;;
35679;SDS011;21803;53.586;10.040;2024-02-21T08:24:55;4.90;;;1.88;;
35679;SDS011;21803;53.586;10.040;2024-02-21T08:27:21;4.75;;;1.58;;
35679;SDS011;21803;53.586;10.040;2024-02-21T08:29:46;3.63;;;1.15;;
35679;SDS011;21803;53.586;10.040;2024-02-21T08:32:12;2.95;;;1.33;;
35679;SDS011;21803;53.586;10.040;2024-02-21T08:34:37;5.30;;;1.40;;
35679;SDS011;21803;53.586;10.040;2024-02-21T08:37:03;5.13;;;1.17;;
35679;SDS011;21803;53.586;10.040;2024-02-21T08:39:29;2.63;;;1.38;;
35679;SDS011;21803;53.586;10.040;2024-02-21T08:41:55;3.17;;;1.42;;
35679;SDS011;21803;53.586;10.040;2024-02-21T08:44:22;2.88;;;1.00;;
35679;SDS011;21803;53.586;10.040;2024-02-21T08:46:48;2.88;;;1.20;;
35679;SDS011;21803;53.586;10.040;2024-02-21T08:49:14;2.25;;;1.10;;
35679;SDS011;21803;53.586;10.040;2024-02-21T08:51:39;3.45;;;1.17;;
35679;SDS011;21803;53.586;10.040;2024-02-21T08:54:05;2.53;;;1.05;;
35679;SDS011;21803;53.586;10.040;2024-02-21T08:56:31;4.20;;;1.27;;
35679;SDS011;21803;53.586;10.040;2024-02-21T08:58:57;4.03;;;1.15;;
35679;SDS011;21803;53.586;10.040;2024-02-21T09:01:23;2.75;;;1.00;;
35679;SDS011;21803;53.586;10.040;2024-02-21T09:03:48;3.00;;;1.10;;
35679;SDS011;21803;53.586;10.040;2024-02-21T09:06:18;3.13;;;0.85;;
35679;SDS011;21803;53.586;10.040;2024-02-21T09:08:44;3.60;;;0.60;;
35679;SDS011;21803;53.586;10.040;2024-02-21T09:11:10;2.38;;;0.82;;
35679;SDS011;21803;53.586;10.040;2024-02-21T09:13:36;1.45;;;0.70;;
35679;SDS011;21803;53.586;10.040;2024-02-21T09:16:01;1.90;;;0.80;;
35679;SDS011;21803;53.586;10.040;2024-02-21T09:18:27;1.30;;;0.80;;
35679;SDS011;21803;53.586;10.040;2024-02-21T09:20:53;2.13;;;0.70;;
35679;SDS011;21803;53.586;10.040;2024-02-21T09:23:18;3.95;;;0.93;;
35679;SDS011;21803;53.586;10.040;2024-02-21T09:25:44;1.83;;;0.70;;
35679;SDS011;21803;53.586;10.040;2024-02-21T09:28:11;3.20;;;0.93;;
35679;SDS011;21803;53.586;10.040;2024-02-21T09:30:38;2.13;;;1.00;;
35679;SDS011;21803;53.586;10.040;2024-02-21T09:33:03;1.77;;;0.80;;
35679;SDS011;21803;53.586;10.040;2024-02-21T09:35:30;1.52;;;0.70;;
35679;SDS011;21803;53.586;10.040;2024-02-21T09:37:56;2.05;;;0.75;;
35679;SDS011;21803;53.586;10.040;2024-02-21T09:40:21;2.13;;;0.80;;
35679;SDS011;21803;53.586;10.040;2024-02-21T09:42:47;2.40;;;0.70;;
35679;SDS011;21803;53.586;10.040;2024-02-21T09:50:48;2.03;;;0.80;;
35679;SDS011;21803;53.586;10.040;2024-02-21T09:53:15;1.73;;;0.75;;
35679;SDS011;21803;53.586;10.040;2024-02-21T09:55:41;0.80;;;0.47;;
35679;SDS011;21803;53.586;10.040;2024-02-21T09:58:08;0.75;;;0.40;;
35679;SDS011;21803;53.586;10.040;2024-02-21T10:00:35;1.65;;;0.73;;
35679;SDS011;21803;53.586;10.040;2024-02-21T10:03:01;1.33;;;0.55;;
35679;SDS011;21803;53.586;10.040;2024-02-21T10:05:30;1.35;;;0.88;;
35679;SDS011;21803;53.586;10.040;2024-02-21T10:07:55;0.90;;;0.60;;
35679;SDS011;21803;53.586;10.040;2024-02-21T10:10:21;1.42;;;0.57;;
35679;SDS011;21803;53.586;10.040;2024-02-21T10:12:47;2.50;;;0.70;;
35679;SDS011;21803;53.586;10.040;2024-02-21T10:15:19;0.43;;;0.43;;
35679;SDS011;21803;53.586;10.040;2024-02-21T10:17:48;1.67;;;0.60;;
35679;SDS011;21803;53.586;10.040;2024-02-21T10:20:14;0.77;;;0.57;;
35679;SDS011;21803;53.586;10.040;2024-02-21T10:22:41;0.68;;;0.50;;
35679;SDS011;21803;53.586;10.040;2024-02-21T10:25:10;1.42;;;0.50;;
35679;SDS011;21803;53.586;10.040;2024-02-21T10:27:37;2.15;;;0.77;;
35679;SDS011;21803;53.586;10.040;2024-02-21T10:30:07;1.38;;;0.60;;
35679;SDS011;21803;53.586;10.040;2024-02-21T10:32:37;3.03;;;0.68;;
35679;SDS011;21803;53.586;10.040;2024-02-21T10:35:25;0.50;;;0.50;;
35679;SDS011;21803;53.586;10.040;2024-02-21T10:37:51;0.98;;;0.50;;
35679;SDS011;21803;53.586;10.040;2024-02-21T10:40:20;0.90;;;0.70;;
35679;SDS011;21803;53.586;10.040;2024-02-21T10:43:01;1.58;;;0.68;;
35679;SDS011;21803;53.586;10.040;2024-02-21T10:45:29;2.17;;;0.90;;
35679;SDS011;21803;53.586;10.040;2024-02-21T10:47:59;1.02;;;0.60;;
35679;SDS011;21803;53.586;10.040;2024-02-21T10:50:40;1.60;;;0.73;;
35679;SDS011;21803;53.586;10.040;2024-02-21T10:56:47;2.22;;;0.80;;
35679;SDS011;21803;53.586;10.040;2024-02-21T10:59:15;5.10;;;0.90;;
35679;SDS011;21803;53.586;10.040;2024-02-21T11:01:43;2.10;;;0.60;;
35679;SDS011;21803;53.586;10.040;2024-02-21T11:04:08;1.98;;;0.98;;
35679;SDS011;21803;53.586;10.040;2024-02-21T11:06:37;1.25;;;0.90;;
35679;SDS011;21803;53.586;10.040;2024-02-21T11:09:04;2.28;;;0.98;;
35679;SDS011;21803;53.586;10.040;2024-02-21T11:11:34;3.00;;;1.10;;
35679;SDS011;21803;53.586;10.040;2024-02-21T11:14:07;0.75;;;0.70;;
35679;SDS011;21803;53.586;10.040;2024-02-21T11:19:06;1.83;;;0.90;;
35679;SDS011;21803;53.586;10.040;2024-02-21T11:21:44;1.08;;;0.82;;
35679;SDS011;21803;53.586;10.040;2024-02-21T11:24:10;4.75;;;1.15;;
35679;SDS011;21803;53.586;10.040;2024-02-21T11:26:37;1.50;;;0.70;;
35679;SDS011;21803;53.586;10.040;2024-02-21T11:29:03;1.70;;;1.00;;
35679;SDS011;21803;53.586;10.040;2024-02-21T11:31:42;3.17;;;0.98;;
35679;SDS011;21803;53.586;10.040;2024-02-21T11:34:10;0.90;;;0.70;;
35679;SDS011;21803;53.586;10.040;2024-02-21T11:36:39;2.47;;;0.80;;
35679;SDS011;21803;53.586;10.040;2024-02-21T11:39:13;1.58;;;0.90;;
35679;SDS011;21803;53.586;10.040;2024-02-21T11:41:42;1.00;;;0.80;;
35679;SDS011;21803;53.586;10.040;2024-02-21T11:44:08;1.58;;;0.80;;
35679;SDS011;21803;53.586;10.040;2024-02-21T11:46:33;0.82;;;0.80;;
35679;SDS011;21803;53.586;10.040;2024-02-21T11:48:59;1.65;;;0.95;;
35679;SDS011;21803;53.586;10.040;2024-02-21T11:51:26;2.05;;;0.90;;
35679;SDS011;21803;53.586;10.040;2024-02-21T11:53:52;0.85;;;0.70;;
35679;SDS011;21803;53.586;10.040;2024-02-21T11:56:18;3.47;;;0.90;;
35679;SDS011;21803;53.586;10.040;2024-02-21T11:58:45;1.08;;;0.80;;
35679;SDS011;21803;53.586;10.040;2024-02-21T12:01:12;2.45;;;0.98;;
35679;SDS011;21803;53.586;10.040;2024-02-21T12:03:38;2.28;;;0.68;;
35679;SDS011;21803;53.586;10.040;2024-02-21T12:06:06;2.35;;;1.15;;
35679;SDS011;21803;53.586;10.040;2024-02-21T12:08:41;0.88;;;0.68;;
35679;SDS011;21803;53.586;10.040;2024-02-21T12:11:20;1.33;;;1.00;;
35679;SDS011;21803;53.586;10.040;2024-02-21T12:14:01;1.00;;;0.63;;
35679;SDS011;21803;53.586;10.040;2024-02-21T12:16:29;2.95;;;0.88;;
35679;SDS011;21803;53.586;10.040;2024-02-21T12:18:57;1.25;;;0.65;;
35679;SDS011;21803;53.586;10.040;2024-02-21T12:21:35;0.88;;;0.60;;
35679;SDS011;21803;53.586;10.040;2024-02-21T12:24:46;2.00;;;0.90;;
35679;SDS011;21803;53.586;10.040;2024-02-21T12:26:53;1.00;;;0.80;;
35679;SDS011;21803;53.586;10.040;2024-02-21T12:29:19;1.08;;;0.55;;
35679;SDS011;21803;53.586;10.040;2024-02-21T12:31:46;0.80;;;0.60;;
35679;SDS011;21803;53.586;10.040;2024-02-21T12:34:12;0.60;;;0.40;;
35679;SDS011;21803;53.586;10.040;2024-02-21T12:36:42;1.27;;;0.80;;
35679;SDS011;21803;53.586;10.040;2024-02-21T12:39:09;1.50;;;0.80;;
35679;SDS011;21803;53.586;10.040;2024-02-21T12:41:38;1.80;;;0.88;;
35679;SDS011;21803;53.586;10.040;2024-02-21T12:44:04;1.33;;;0.90;;
35679;SDS011;21803;53.586;10.040;2024-02-21T12:46:32;1.02;;;0.73;;
35679;SDS011;21803;53.586;10.040;2024-02-21T12:49:01;0.60;;;0.52;;
35679;SDS011;21803;53.586;10.040;2024-02-21T12:51:27;2.13;;;0.85;;
35679;SDS011;21803;53.586;10.040;2024-02-21T12:53:54;1.75;;;0.95;;
35679;SDS011;21803;53.586;10.040;2024-02-21T12:56:20;0.70;;;0.60;;
35679;SDS011;21803;53.586;10.040;2024-02-21T12:58:45;0.85;;;0.73;;
35679;SDS011;21803;53.586;10.040;2024-02-21T13:01:11;0.63;;;0.63;;
35679;SDS011;21803;53.586;10.040;2024-02-21T13:03:37;1.10;;;0.80;;
35679;SDS011;21803;53.586;10.040;2024-02-21T13:06:03;0.90;;;0.70;;
35679;SDS011;21803;53.586;10.040;2024-02-21T13:08:29;1.63;;;0.60;;
35679;SDS011;21803;53.586;10.040;2024-02-21T13:10:54;0.85;;;0.77;;
35679;SDS011;21803;53.586;10.040;2024-02-21T13:13:20;1.75;;;0.80;;
35679;SDS011;21803;53.586;10.040;2024-02-21T13:15:45;1.88;;;0.80;;
35679;SDS011;21803;53.586;10.040;2024-02-21T13:18:11;1.13;;;0.82;;
35679;SDS011;21803;53.586;10.040;2024-02-21T13:20:36;1.08;;;0.70;;
35679;SDS011;21803;53.586;10.040;2024-02-21T13:23:02;1.00;;;0.68;;
35679;SDS011;21803;53.586;10.040;2024-02-21T13:25:28;1.33;;;0.80;;
35679;SDS011;21803;53.586;10.040;2024-02-21T13:27:54;1.52;;;0.77;;
35679;SDS011;21803;53.586;10.040;2024-02-21T13:30:20;0.90;;;0.60;;
35679;SDS011;21803;53.586;10.040;2024-02-21T13:32:46;1.17;;;0.70;;
35679;SDS011;21803;53.586;10.040;2024-02-21T13:35:12;1.17;;;0.70;;
35679;SDS011;21803;53.586;10.040;2024-02-21T13:37:38;0.90;;;0.65;;
35679;SDS011;21803;53.586;10.040;2024-02-21T13:40:04;1.73;;;0.90;;
35679;SDS011;21803;53.586;10.040;2024-02-21T13:42:30;2.90;;;0.90;;
35679;SDS011;21803;53.586;10.040;2024-02-21T13:44:56;1.48;;;0.70;;
35679;SDS011;21803;53.586;10.040;2024-02-21T13:47:21;1.35;;;0.90;;
35679;SDS011;21803;53.586;10.040;2024-02-21T13:49:47;5.35;;;0.90;;
35679;SDS011;21803;53.586;10.040;2024-02-21T13:52:13;2.17;;;0.93;;
35679;SDS011;21803;53.586;10.040;2024-02-21T13:54:39;2.15;;;0.90;;
35679;SDS011;21803;53.586;10.040;2024-02-21T13:57:05;0.63;;;0.43;;
35679;SDS011;21803;53.586;10.040;2024-02-21T13:59:30;5.57;;;1.00;;
35679;SDS011;21803;53.586;10.040;2024-02-21T14:01:58;2.13;;;0.77;;
35679;SDS011;21803;53.586;10.040;2024-02-21T14:04:23;1.50;;;0.80;;
35679;SDS011;21803;53.586;10.040;2024-02-21T14:06:49;0.90;;;0.60;;
35679;SDS011;21803;53.586;10.040;2024-02-21T14:09:15;2.28;;;0.77;;
35679;SDS011;21803;53.586;10.040;2024-02-21T14:11:40;3.15;;;0.90;;
35679;SDS011;21803;53.586;10.040;2024-02-21T14:14:07;1.50;;;0.80;;
35679;SDS011;21803;53.586;10.040;2024-02-21T14:16:32;1.13;;;0.82;;
35679;SDS011;21803;53.586;10.040;2024-02-21T14:18:58;0.90;;;0.70;;
35679;SDS011;21803;53.586;10.040;2024-02-21T14:21:24;1.10;;;0.73;;
35679;SDS011;21803;53.586;10.040;2024-02-21T14:23:50;2.58;;;0.80;;
35679;SDS011;21803;53.586;10.040;2024-02-21T14:26:17;1.17;;;0.90;;
35679;SDS011;21803;53.586;10.040;2024-02-21T14:28:43;0.90;;;0.70;;
35679;SDS011;21803;53.586;10.040;2024-02-21T14:31:08;1.42;;;0.82;;
35679;SDS011;21803;53.586;10.040;2024-02-21T14:33:35;1.05;;;0.70;;
35679;SDS011;21803;53.586;10.040;2024-02-21T14:36:01;0.95;;;0.70;;
35679;SDS011;21803;53.586;10.040;2024-02-21T14:38:27;1.73;;;0.60;;
35679;SDS011;21803;53.586;10.040;2024-02-21T14:40:53;1.05;;;0.75;;